sensor_id;sensor_type;location;lat;lon;timestamp;temperature;humidity
65040;HTU21D;51606;45.000;38.612;2023-05-29T04:03:24;25.92;69.79
65040;HTU21D;51606;45.000;38.612;2023-05-29T04:05:51;25.33;70.67
65040;HTU21D;51606;45.000;38.612;2023-05-29T04:08:19;24.83;71.45
65040;HTU21D;51606;45.000;38.612;2023-05-29T04:10:46;24.33;72.13
65040;HTU21D;51606;45.000;38.612;2023-05-29T04:13:12;23.88;72.72
65040;HTU21D;51606;45.000;38.612;2023-05-29T04:15:39;23.54;73.18
65040;HTU21D;51606;45.000;38.612;2023-05-29T04:18:05;23.31;73.41
65040;HTU21D;51606;45.000;38.612;2023-05-29T04:20:33;23.13;73.51
65040;HTU21D;51606;45.000;38.612;2023-05-29T04:22:59;22.96;73.61
65040;HTU21D;51606;45.000;38.612;2023-05-29T04:25:26;22.83;73.65
65040;HTU21D;51606;45.000;38.612;2023-05-29T04:27:52;22.69;73.73
65040;HTU21D;51606;45.000;38.612;2023-05-29T04:30:20;22.60;73.73
65040;HTU21D;51606;45.000;38.612;2023-05-29T04:32:49;22.48;73.73
65040;HTU21D;51606;45.000;38.612;2023-05-29T04:35:16;22.35;73.77
65040;HTU21D;51606;45.000;38.612;2023-05-29T04:37:51;22.19;73.88
65040;HTU21D;51606;45.000;38.612;2023-05-29T04:40:19;22.05;74.05
65040;HTU21D;51606;45.000;38.612;2023-05-29T04:42:46;21.92;74.16
65040;HTU21D;51606;45.000;38.612;2023-05-29T04:45:14;21.79;74.31
65040;HTU21D;51606;45.000;38.612;2023-05-29T04:47:42;21.70;74.39
65040;HTU21D;51606;45.000;38.612;2023-05-29T04:50:15;21.63;74.47
65040;HTU21D;51606;45.000;38.612;2023-05-29T04:52:44;21.55;74.51
65040;HTU21D;51606;45.000;38.612;2023-05-29T04:55:11;21.49;74.56
65040;HTU21D;51606;45.000;38.612;2023-05-29T04:57:39;21.43;74.64
65040;HTU21D;51606;45.000;38.612;2023-05-29T05:00:12;21.36;74.75
65040;HTU21D;51606;45.000;38.612;2023-05-29T05:02:44;21.30;74.82
65040;HTU21D;51606;45.000;38.612;2023-05-29T05:05:13;21.25;74.84
65040;HTU21D;51606;45.000;38.612;2023-05-29T05:07:39;21.23;74.90
65040;HTU21D;51606;45.000;38.612;2023-05-29T05:10:07;21.20;74.93
65040;HTU21D;51606;45.000;38.612;2023-05-29T05:12:35;21.16;74.98
65040;HTU21D;51606;45.000;38.612;2023-05-29T05:15:02;21.14;75.04
65040;HTU21D;51606;45.000;38.612;2023-05-29T05:17:30;21.09;75.09
65040;HTU21D;51606;45.000;38.612;2023-05-29T05:19:56;21.06;75.15
65040;HTU21D;51606;45.000;38.612;2023-05-29T05:22:23;21.00;75.30
65040;HTU21D;51606;45.000;38.612;2023-05-29T05:24:50;20.95;75.43
65040;HTU21D;51606;45.000;38.612;2023-05-29T05:27:18;20.89;75.55
65040;HTU21D;51606;45.000;38.612;2023-05-29T05:29:44;20.85;75.66
65040;HTU21D;51606;45.000;38.612;2023-05-29T05:32:11;20.80;75.70
65040;HTU21D;51606;45.000;38.612;2023-05-29T05:34:38;20.78;75.81
65040;HTU21D;51606;45.000;38.612;2023-05-29T05:37:06;20.77;75.85
65040;HTU21D;51606;45.000;38.612;2023-05-29T05:39:33;20.77;75.89
65040;HTU21D;51606;45.000;38.612;2023-05-29T05:42:00;20.75;76.05
65040;HTU21D;51606;45.000;38.612;2023-05-29T05:44:44;20.63;76.15
65040;HTU21D;51606;45.000;38.612;2023-05-29T05:47:13;20.53;76.50
65040;HTU21D;51606;45.000;38.612;2023-05-29T05:49:39;20.45;76.86
65040;HTU21D;51606;45.000;38.612;2023-05-29T05:52:06;20.39;77.05
65040;HTU21D;51606;45.000;38.612;2023-05-29T05:54:33;20.34;77.28
65040;HTU21D;51606;45.000;38.612;2023-05-29T05:57:00;20.31;77.36
65040;HTU21D;51606;45.000;38.612;2023-05-29T05:59:27;20.26;77.55
65040;HTU21D;51606;45.000;38.612;2023-05-29T06:01:53;20.20;77.68
65040;HTU21D;51606;45.000;38.612;2023-05-29T06:04:20;20.16;77.82
65040;HTU21D;51606;45.000;38.612;2023-05-29T06:06:49;20.12;78.06
65040;HTU21D;51606;45.000;38.612;2023-05-29T06:09:19;20.06;78.13
65040;HTU21D;51606;45.000;38.612;2023-05-29T06:11:45;20.02;78.34
65040;HTU21D;51606;45.000;38.612;2023-05-29T06:14:11;19.98;78.63
65040;HTU21D;51606;45.000;38.612;2023-05-29T06:16:38;19.96;78.74
65040;HTU21D;51606;45.000;38.612;2023-05-29T06:19:04;19.92;78.84
65040;HTU21D;51606;45.000;38.612;2023-05-29T06:21:37;19.87;79.02
65040;HTU21D;51606;45.000;38.612;2023-05-29T06:24:04;19.84;79.13
65040;HTU21D;51606;45.000;38.612;2023-05-29T06:26:30;19.81;79.39
65040;HTU21D;51606;45.000;38.612;2023-05-29T06:28:57;19.75;79.66
65040;HTU21D;51606;45.000;38.612;2023-05-29T06:31:23;19.69;79.73
65040;HTU21D;51606;45.000;38.612;2023-05-29T06:33:50;19.67;79.69
65040;HTU21D;51606;45.000;38.612;2023-05-29T06:39:05;19.61;79.76
65040;HTU21D;51606;45.000;38.612;2023-05-29T06:41:43;19.61;79.95
65040;HTU21D;51606;45.000;38.612;2023-05-29T06:44:09;19.61;79.90
65040;HTU21D;51606;45.000;38.612;2023-05-29T06:46:38;19.62;79.95
65040;HTU21D;51606;45.000;38.612;2023-05-29T06:49:05;19.63;79.98
65040;HTU21D;51606;45.000;38.612;2023-05-29T06:51:33;19.65;79.98
65040;HTU21D;51606;45.000;38.612;2023-05-29T06:54:29;19.67;79.83
65040;HTU21D;51606;45.000;38.612;2023-05-29T06:57:03;19.69;79.60
65040;HTU21D;51606;45.000;38.612;2023-05-29T06:59:29;19.63;79.66
65040;HTU21D;51606;45.000;38.612;2023-05-29T07:01:56;19.60;79.83
65040;HTU21D;51606;45.000;38.612;2023-05-29T07:04:22;19.57;79.95
65040;HTU21D;51606;45.000;38.612;2023-05-29T07:06:49;19.54;80.04
65040;HTU21D;51606;45.000;38.612;2023-05-29T07:09:16;19.51;80.07
65040;HTU21D;51606;45.000;38.612;2023-05-29T07:11:42;19.50;80.10
65040;HTU21D;51606;45.000;38.612;2023-05-29T07:14:08;19.45;80.13
65040;HTU21D;51606;45.000;38.612;2023-05-29T07:16:35;19.43;80.19
65040;HTU21D;51606;45.000;38.612;2023-05-29T07:19:05;19.41;80.21
65040;HTU21D;51606;45.000;38.612;2023-05-29T07:21:35;19.38;80.24
65040;HTU21D;51606;45.000;38.612;2023-05-29T07:24:02;19.35;80.28
65040;HTU21D;51606;45.000;38.612;2023-05-29T07:26:29;19.32;80.32
65040;HTU21D;51606;45.000;38.612;2023-05-29T07:28:57;19.33;80.33
65040;HTU21D;51606;45.000;38.612;2023-05-29T07:31:26;19.33;80.37
65040;HTU21D;51606;45.000;38.612;2023-05-29T07:33:54;19.33;80.35
65040;HTU21D;51606;45.000;38.612;2023-05-29T07:36:21;19.35;80.35
65040;HTU21D;51606;45.000;38.612;2023-05-29T07:38:49;19.36;80.36
65040;HTU21D;51606;45.000;38.612;2023-05-29T07:41:18;19.35;80.38
65040;HTU21D;51606;45.000;38.612;2023-05-29T07:43:51;19.35;80.40
65040;HTU21D;51606;45.000;38.612;2023-05-29T07:46:19;19.33;80.49
65040;HTU21D;51606;45.000;38.612;2023-05-29T07:48:48;19.32;80.55
65040;HTU21D;51606;45.000;38.612;2023-05-29T07:51:15;19.33;80.78
65040;HTU21D;51606;45.000;38.612;2023-05-29T07:53:45;19.32;80.95
65040;HTU21D;51606;45.000;38.612;2023-05-29T07:56:19;19.31;81.10
65040;HTU21D;51606;45.000;38.612;2023-05-29T07:58:47;19.30;81.17
65040;HTU21D;51606;45.000;38.612;2023-05-29T08:01:14;19.29;81.21
65040;HTU21D;51606;45.000;38.612;2023-05-29T08:03:48;19.30;81.39
65040;HTU21D;51606;45.000;38.612;2023-05-29T08:06:23;19.32;81.27
65040;HTU21D;51606;45.000;38.612;2023-05-29T08:08:50;19.33;81.33
65040;HTU21D;51606;45.000;38.612;2023-05-29T08:11:27;19.39;81.42
65040;HTU21D;51606;45.000;38.612;2023-05-29T08:13:54;19.45;81.21
65040;HTU21D;51606;45.000;38.612;2023-05-29T08:16:20;19.51;81.21
65040;HTU21D;51606;45.000;38.612;2023-05-29T08:18:48;19.56;81.23
65040;HTU21D;51606;45.000;38.612;2023-05-29T08:21:14;19.59;81.18
65040;HTU21D;51606;45.000;38.612;2023-05-29T08:23:41;19.62;81.15
65040;HTU21D;51606;45.000;38.612;2023-05-29T08:26:07;19.68;81.11
65040;HTU21D;51606;45.000;38.612;2023-05-29T08:28:42;19.76;81.08
65040;HTU21D;51606;45.000;38.612;2023-05-29T08:31:09;19.82;80.95
65040;HTU21D;51606;45.000;38.612;2023-05-29T08:33:35;19.88;80.91
65040;HTU21D;51606;45.000;38.612;2023-05-29T08:36:03;19.97;80.85
65040;HTU21D;51606;45.000;38.612;2023-05-29T08:38:29;20.04;80.81
65040;HTU21D;51606;45.000;38.612;2023-05-29T08:40:59;20.13;80.82
65040;HTU21D;51606;45.000;38.612;2023-05-29T08:43:55;20.17;80.94
65040;HTU21D;51606;45.000;38.612;2023-05-29T08:46:33;20.19;80.93
65040;HTU21D;51606;45.000;38.612;2023-05-29T08:49:17;20.25;80.96
65040;HTU21D;51606;45.000;38.612;2023-05-29T08:51:47;20.24;81.08
65040;HTU21D;51606;45.000;38.612;2023-05-29T08:54:17;20.25;81.18
65040;HTU21D;51606;45.000;38.612;2023-05-29T08:56:43;20.24;81.39
65040;HTU21D;51606;45.000;38.612;2023-05-29T08:59:11;20.21;81.42
65040;HTU21D;51606;45.000;38.612;2023-05-29T09:01:38;20.22;81.42
65040;HTU21D;51606;45.000;38.612;2023-05-29T09:04:11;20.27;81.42
65040;HTU21D;51606;45.000;38.612;2023-05-29T09:06:38;20.31;81.29
65040;HTU21D;51606;45.000;38.612;2023-05-29T09:09:07;20.35;81.21
65040;HTU21D;51606;45.000;38.612;2023-05-29T09:11:33;20.39;81.20
65040;HTU21D;51606;45.000;38.612;2023-05-29T09:13:59;20.41;81.19
65040;HTU21D;51606;45.000;38.612;2023-05-29T09:16:31;20.39;81.28
65040;HTU21D;51606;45.000;38.612;2023-05-29T09:19:07;20.36;81.39
65040;HTU21D;51606;45.000;38.612;2023-05-29T09:21:34;20.33;81.41
65040;HTU21D;51606;45.000;38.612;2023-05-29T09:24:04;20.32;81.52
65040;HTU21D;51606;45.000;38.612;2023-05-29T09:26:32;20.34;81.45
65040;HTU21D;51606;45.000;38.612;2023-05-29T09:28:58;20.39;81.38
65040;HTU21D;51606;45.000;38.612;2023-05-29T09:31:25;20.40;81.35
65040;HTU21D;51606;45.000;38.612;2023-05-29T09:33:51;20.42;81.32
65040;HTU21D;51606;45.000;38.612;2023-05-29T09:36:22;20.45;81.33
65040;HTU21D;51606;45.000;38.612;2023-05-29T09:38:49;20.46;81.29
65040;HTU21D;51606;45.000;38.612;2023-05-29T09:41:22;20.47;81.37
65040;HTU21D;51606;45.000;38.612;2023-05-29T09:43:56;20.46;81.38
65040;HTU21D;51606;45.000;38.612;2023-05-29T09:46:22;20.47;81.32
65040;HTU21D;51606;45.000;38.612;2023-05-29T09:48:48;20.48;81.36
65040;HTU21D;51606;45.000;38.612;2023-05-29T09:51:22;20.48;81.42
65040;HTU21D;51606;45.000;38.612;2023-05-29T09:53:52;20.48;81.38
65040;HTU21D;51606;45.000;38.612;2023-05-29T09:56:23;20.49;81.39
65040;HTU21D;51606;45.000;38.612;2023-05-29T09:58:52;20.49;81.38
65040;HTU21D;51606;45.000;38.612;2023-05-29T10:01:19;20.47;81.38
65040;HTU21D;51606;45.000;38.612;2023-05-29T10:03:50;20.47;81.43
65040;HTU21D;51606;45.000;38.612;2023-05-29T10:06:18;20.45;81.46
65040;HTU21D;51606;45.000;38.612;2023-05-29T10:08:47;20.45;81.46
65040;HTU21D;51606;45.000;38.612;2023-05-29T10:11:18;20.45;81.48
65040;HTU21D;51606;45.000;38.612;2023-05-29T10:13:47;20.47;81.46
65040;HTU21D;51606;45.000;38.612;2023-05-29T10:16:16;20.50;81.39
65040;HTU21D;51606;45.000;38.612;2023-05-29T10:18:47;20.57;81.31
65040;HTU21D;51606;45.000;38.612;2023-05-29T10:21:16;20.65;81.16
65040;HTU21D;51606;45.000;38.612;2023-05-29T10:23:49;20.74;81.10
65040;HTU21D;51606;45.000;38.612;2023-05-29T10:26:21;20.81;80.96
65040;HTU21D;51606;45.000;38.612;2023-05-29T10:29:25;20.90;80.85
65040;HTU21D;51606;45.000;38.612;2023-05-29T10:37:06;21.03;80.69
65040;HTU21D;51606;45.000;38.612;2023-05-29T10:39:34;21.06;80.63
65040;HTU21D;51606;45.000;38.612;2023-05-29T10:42:00;21.10;80.62
65040;HTU21D;51606;45.000;38.612;2023-05-29T10:47:02;21.11;80.65
65040;HTU21D;51606;45.000;38.612;2023-05-29T10:49:29;21.10;80.67
65040;HTU21D;51606;45.000;38.612;2023-05-29T10:51:57;21.08;80.74
65040;HTU21D;51606;45.000;38.612;2023-05-29T10:54:26;21.09;80.73
65040;HTU21D;51606;45.000;38.612;2023-05-29T10:56:57;21.08;80.78
65040;HTU21D;51606;45.000;38.612;2023-05-29T10:59:35;21.08;80.76
65040;HTU21D;51606;45.000;38.612;2023-05-29T11:02:04;21.07;80.79
65040;HTU21D;51606;45.000;38.612;2023-05-29T11:04:32;21.08;80.79
65040;HTU21D;51606;45.000;38.612;2023-05-29T11:07:00;21.11;80.75
65040;HTU21D;51606;45.000;38.612;2023-05-29T11:09:32;21.14;80.73
65040;HTU21D;51606;45.000;38.612;2023-05-29T11:15:11;21.15;80.69
65040;HTU21D;51606;45.000;38.612;2023-05-29T11:20:43;21.22;80.56
65040;HTU21D;51606;45.000;38.612;2023-05-29T11:23:16;21.28;80.43
65040;HTU21D;51606;45.000;38.612;2023-05-29T11:25:46;21.37;80.30
65040;HTU21D;51606;45.000;38.612;2023-05-29T11:28:14;21.46;80.16
65040;HTU21D;51606;45.000;38.612;2023-05-29T11:30:44;21.57;80.06
65040;HTU21D;51606;45.000;38.612;2023-05-29T11:33:23;21.63;79.98
65040;HTU21D;51606;45.000;38.612;2023-05-29T11:35:56;21.66;79.97
65040;HTU21D;51606;45.000;38.612;2023-05-29T11:38:27;21.70;79.92
65040;HTU21D;51606;45.000;38.612;2023-05-29T11:44:00;21.79;79.80
65040;HTU21D;51606;45.000;38.612;2023-05-29T11:46:29;21.81;79.79
65040;HTU21D;51606;45.000;38.612;2023-05-29T11:48:59;21.82;79.80
65040;HTU21D;51606;45.000;38.612;2023-05-29T11:51:29;21.83;79.78
65040;HTU21D;51606;45.000;38.612;2023-05-29T11:53:55;21.83;79.77
65040;HTU21D;51606;45.000;38.612;2023-05-29T11:56:27;21.87;79.73
65040;HTU21D;51606;45.000;38.612;2023-05-29T11:59:10;21.90;79.72
65040;HTU21D;51606;45.000;38.612;2023-05-29T12:01:37;21.90;79.69
65040;HTU21D;51606;45.000;38.612;2023-05-29T12:04:14;21.91;79.72
65040;HTU21D;51606;45.000;38.612;2023-05-29T12:06:44;21.94;79.66
65040;HTU21D;51606;45.000;38.612;2023-05-29T12:09:29;21.99;79.65
65040;HTU21D;51606;45.000;38.612;2023-05-29T12:12:04;22.02;79.60
65040;HTU21D;51606;45.000;38.612;2023-05-29T12:14:33;22.04;79.56
65040;HTU21D;51606;45.000;38.612;2023-05-29T12:17:02;22.06;79.57
65040;HTU21D;51606;45.000;38.612;2023-05-29T12:19:28;22.14;79.47
65040;HTU21D;51606;45.000;38.612;2023-05-29T12:21:56;22.21;79.37
65040;HTU21D;51606;45.000;38.612;2023-05-29T12:24:23;22.31;79.24
65040;HTU21D;51606;45.000;38.612;2023-05-29T12:26:49;22.34;79.13
65040;HTU21D;51606;45.000;38.612;2023-05-29T12:29:17;22.37;79.14
65040;HTU21D;51606;45.000;38.612;2023-05-29T12:32:01;22.41;79.18
65040;HTU21D;51606;45.000;38.612;2023-05-29T12:34:34;22.40;79.16
65040;HTU21D;51606;45.000;38.612;2023-05-29T12:37:09;22.40;79.18
65040;HTU21D;51606;45.000;38.612;2023-05-29T12:39:40;22.42;79.16
65040;HTU21D;51606;45.000;38.612;2023-05-29T12:42:07;22.49;79.07
65040;HTU21D;51606;45.000;38.612;2023-05-29T12:44:37;22.60;78.96
65040;HTU21D;51606;45.000;38.612;2023-05-29T12:47:13;22.75;78.70
65040;HTU21D;51606;45.000;38.612;2023-05-29T12:49:40;22.79;78.60
65040;HTU21D;51606;45.000;38.612;2023-05-29T12:52:08;22.84;78.60
65040;HTU21D;51606;45.000;38.612;2023-05-29T12:54:39;22.90;78.53
65040;HTU21D;51606;45.000;38.612;2023-05-29T12:57:06;22.93;78.56
65040;HTU21D;51606;45.000;38.612;2023-05-29T12:59:33;23.09;78.32
65040;HTU21D;51606;45.000;38.612;2023-05-29T13:01:59;23.26;78.05
65040;HTU21D;51606;45.000;38.612;2023-05-29T13:04:27;23.34;77.94
65040;HTU21D;51606;45.000;38.612;2023-05-29T13:06:53;23.26;78.10
65040;HTU21D;51606;45.000;38.612;2023-05-29T13:12:03;23.12;78.49
65040;HTU21D;51606;45.000;38.612;2023-05-29T13:17:36;23.41;78.13
65040;HTU21D;51606;45.000;38.612;2023-05-29T13:20:03;23.62;77.79
65040;HTU21D;51606;45.000;38.612;2023-05-29T13:22:34;23.82;77.47
65040;HTU21D;51606;45.000;38.612;2023-05-29T13:25:00;23.95;77.33
65040;HTU21D;51606;45.000;38.612;2023-05-29T13:27:27;24.02;77.25
65040;HTU21D;51606;45.000;38.612;2023-05-29T13:29:54;24.13;77.15
65040;HTU21D;51606;45.000;38.612;2023-05-29T13:32:21;24.09;77.21
65040;HTU21D;51606;45.000;38.612;2023-05-29T13:35:02;24.06;77.34
65040;HTU21D;51606;45.000;38.612;2023-05-29T13:37:29;24.15;77.31
65040;HTU21D;51606;45.000;38.612;2023-05-29T13:39:56;24.30;77.05
65040;HTU21D;51606;45.000;38.612;2023-05-29T13:42:22;24.41;76.88
65040;HTU21D;51606;45.000;38.612;2023-05-29T13:45:05;24.47;76.68
65040;HTU21D;51606;45.000;38.612;2023-05-29T13:47:35;24.46;76.74
65040;HTU21D;51606;45.000;38.612;2023-05-29T13:50:03;24.50;76.70
65040;HTU21D;51606;45.000;38.612;2023-05-29T13:52:31;24.60;76.54
65040;HTU21D;51606;45.000;38.612;2023-05-29T13:54:57;24.68;76.43
65040;HTU21D;51606;45.000;38.612;2023-05-29T13:57:32;24.65;76.47
65040;HTU21D;51606;45.000;38.612;2023-05-29T13:59:58;24.64;76.58
65040;HTU21D;51606;45.000;38.612;2023-05-29T14:02:25;24.68;76.50
65040;HTU21D;51606;45.000;38.612;2023-05-29T14:04:52;24.68;76.44
65040;HTU21D;51606;45.000;38.612;2023-05-29T14:07:19;24.64;76.50
65040;HTU21D;51606;45.000;38.612;2023-05-29T14:09:45;24.63;76.53
65040;HTU21D;51606;45.000;38.612;2023-05-29T14:12:11;24.59;76.56
65040;HTU21D;51606;45.000;38.612;2023-05-29T14:14:38;24.55;76.63
65040;HTU21D;51606;45.000;38.612;2023-05-29T14:17:05;24.57;76.60
65040;HTU21D;51606;45.000;38.612;2023-05-29T14:19:34;24.65;76.42
65040;HTU21D;51606;45.000;38.612;2023-05-29T14:22:01;24.61;76.36
65040;HTU21D;51606;45.000;38.612;2023-05-29T14:24:27;24.46;76.56
65040;HTU21D;51606;45.000;38.612;2023-05-29T14:26:54;24.31;76.78
65040;HTU21D;51606;45.000;38.612;2023-05-29T14:29:20;24.19;76.95
65040;HTU21D;51606;45.000;38.612;2023-05-29T14:31:47;24.13;77.02
65040;HTU21D;51606;45.000;38.612;2023-05-29T14:34:14;24.09;77.02
65040;HTU21D;51606;45.000;38.612;2023-05-29T14:36:40;24.00;77.08
65040;HTU21D;51606;45.000;38.612;2023-05-29T14:39:10;23.99;77.05
65040;HTU21D;51606;45.000;38.612;2023-05-29T14:41:38;24.01;76.91
65040;HTU21D;51606;45.000;38.612;2023-05-29T14:44:04;23.96;76.89
65040;HTU21D;51606;45.000;38.612;2023-05-29T14:46:31;23.92;76.95
65040;HTU21D;51606;45.000;38.612;2023-05-29T14:49:00;23.86;76.98
65040;HTU21D;51606;45.000;38.612;2023-05-29T14:51:27;23.73;77.08
65040;HTU21D;51606;45.000;38.612;2023-05-29T14:53:53;23.57;77.31
65040;HTU21D;51606;45.000;38.612;2023-05-29T14:56:20;23.45;77.46
65040;HTU21D;51606;45.000;38.612;2023-05-29T14:58:47;23.38;77.49
65040;HTU21D;51606;45.000;38.612;2023-05-29T15:01:23;23.32;77.41
65040;HTU21D;51606;45.000;38.612;2023-05-29T15:03:50;23.21;77.50
65040;HTU21D;51606;45.000;38.612;2023-05-29T15:06:17;23.12;77.61
65040;HTU21D;51606;45.000;38.612;2023-05-29T15:08:44;23.10;77.56
65040;HTU21D;51606;45.000;38.612;2023-05-29T15:11:11;23.07;77.52
65040;HTU21D;51606;45.000;38.612;2023-05-29T15:13:41;23.08;77.49
65040;HTU21D;51606;45.000;38.612;2023-05-29T15:16:08;23.09;77.40
65040;HTU21D;51606;45.000;38.612;2023-05-29T15:18:34;23.13;77.28
65040;HTU21D;51606;45.000;38.612;2023-05-29T15:21:01;23.16;77.15
65040;HTU21D;51606;45.000;38.612;2023-05-29T15:23:28;23.16;77.13
65040;HTU21D;51606;45.000;38.612;2023-05-29T15:25:54;23.13;77.16
65040;HTU21D;51606;45.000;38.612;2023-05-29T15:28:21;23.10;77.27
65040;HTU21D;51606;45.000;38.612;2023-05-29T15:30:47;23.03;77.37
65040;HTU21D;51606;45.000;38.612;2023-05-29T15:33:14;22.97;77.49
65040;HTU21D;51606;45.000;38.612;2023-05-29T15:35:40;22.93;77.56
65040;HTU21D;51606;45.000;38.612;2023-05-29T15:38:09;22.88;77.63
65040;HTU21D;51606;45.000;38.612;2023-05-29T15:40:38;22.86;77.59
65040;HTU21D;51606;45.000;38.612;2023-05-29T15:43:06;22.84;77.57
65040;HTU21D;51606;45.000;38.612;2023-05-29T15:45:32;22.81;77.56
65040;HTU21D;51606;45.000;38.612;2023-05-29T15:47:58;22.77;77.60
65040;HTU21D;51606;45.000;38.612;2023-05-29T15:50:25;22.72;77.63
65040;HTU21D;51606;45.000;38.612;2023-05-29T15:52:51;22.68;77.72
65040;HTU21D;51606;45.000;38.612;2023-05-29T15:55:18;22.64;77.77
65040;HTU21D;51606;45.000;38.612;2023-05-29T15:57:44;22.58;77.77
65040;HTU21D;51606;45.000;38.612;2023-05-29T16:00:14;22.52;77.81
65040;HTU21D;51606;45.000;38.612;2023-05-29T16:02:41;22.42;77.85
65040;HTU21D;51606;45.000;38.612;2023-05-29T16:05:08;22.34;77.94
65040;HTU21D;51606;45.000;38.612;2023-05-29T16:07:36;22.25;78.02
65040;HTU21D;51606;45.000;38.612;2023-05-29T16:10:03;22.16;78.09
65040;HTU21D;51606;45.000;38.612;2023-05-29T16:12:30;22.05;78.22
65040;HTU21D;51606;45.000;38.612;2023-05-29T16:15:00;21.91;78.40
65040;HTU21D;51606;45.000;38.612;2023-05-29T16:17:27;21.82;78.52
65040;HTU21D;51606;45.000;38.612;2023-05-29T16:19:53;21.70;78.67
65040;HTU21D;51606;45.000;38.612;2023-05-29T16:22:23;21.60;78.75
65040;HTU21D;51606;45.000;38.612;2023-05-29T16:24:50;21.49;78.85
65040;HTU21D;51606;45.000;38.612;2023-05-29T16:27:18;21.40;78.98
65040;HTU21D;51606;45.000;38.612;2023-05-29T16:29:44;21.29;79.11
65040;HTU21D;51606;45.000;38.612;2023-05-29T16:32:11;21.19;79.22
65040;HTU21D;51606;45.000;38.612;2023-05-29T16:34:37;21.11;79.33
65040;HTU21D;51606;45.000;38.612;2023-05-29T16:37:04;21.03;79.39
65040;HTU21D;51606;45.000;38.612;2023-05-29T16:39:35;20.94;79.47
65040;HTU21D;51606;45.000;38.612;2023-05-29T16:42:02;20.85;79.56
65040;HTU21D;51606;45.000;38.612;2023-05-29T16:44:38;20.76;79.66
65040;HTU21D;51606;45.000;38.612;2023-05-29T16:47:07;20.64;79.82
65040;HTU21D;51606;45.000;38.612;2023-05-29T16:49:34;20.53;79.96
65040;HTU21D;51606;45.000;38.612;2023-05-29T16:52:00;20.42;80.17
65040;HTU21D;51606;45.000;38.612;2023-05-29T16:54:27;20.30;80.33
65040;HTU21D;51606;45.000;38.612;2023-05-29T16:56:55;20.18;80.46
65040;HTU21D;51606;45.000;38.612;2023-05-29T16:59:21;20.10;80.60
65040;HTU21D;51606;45.000;38.612;2023-05-29T17:01:48;19.98;80.72
65040;HTU21D;51606;45.000;38.612;2023-05-29T17:04:15;19.88;80.85
65040;HTU21D;51606;45.000;38.612;2023-05-29T17:06:43;19.79;80.99
65040;HTU21D;51606;45.000;38.612;2023-05-29T17:09:11;19.69;81.09
65040;HTU21D;51606;45.000;38.612;2023-05-29T17:11:37;19.61;81.15
65040;HTU21D;51606;45.000;38.612;2023-05-29T17:14:05;19.56;81.21
65040;HTU21D;51606;45.000;38.612;2023-05-29T17:16:32;19.52;81.24
